sensor_id;sensor_type;location;lat;lon;timestamp;P1;durP1;ratioP1;P2;durP2;ratioP2
22754;SDS011;11544;42.020;23.094;2024-02-14T00:00:44;3.58;;;2.35;;
22754;SDS011;11544;42.020;23.094;2024-02-14T00:03:11;3.58;;;2.30;;
22754;SDS011;11544;42.020;23.094;2024-02-14T00:05:38;4.20;;;2.88;;
22754;SDS011;11544;42.020;23.094;2024-02-14T00:08:07;5.65;;;3.22;;
22754;SDS011;11544;42.020;23.094;2024-02-14T00:10:34;7.57;;;4.30;;
22754;SDS011;11544;42.020;23.094;2024-02-14T00:13:01;10.02;;;4.40;;
22754;SDS011;11544;42.020;23.094;2024-02-14T00:15:29;8.40;;;3.97;;
22754;SDS011;11544;42.020;23.094;2024-02-14T00:17:56;6.22;;;3.53;;
22754;SDS011;11544;42.020;23.094;2024-02-14T00:20:23;5.25;;;3.78;;
22754;SDS011;11544;42.020;23.094;2024-02-14T00:25:26;5.13;;;3.35;;
22754;SDS011;11544;42.020;23.094;2024-02-14T00:27:53;5.60;;;3.75;;
22754;SDS011;11544;42.020;23.094;2024-02-14T00:30:20;5.70;;;3.63;;
22754;SDS011;11544;42.020;23.094;2024-02-14T00:32:50;2.97;;;2.67;;
22754;SDS011;11544;42.020;23.094;2024-02-14T00:35:17;4.18;;;3.17;;
22754;SDS011;11544;42.020;23.094;2024-02-14T00:37:44;4.35;;;2.53;;
22754;SDS011;11544;42.020;23.094;2024-02-14T00:40:11;3.53;;;2.88;;
22754;SDS011;11544;42.020;23.094;2024-02-14T00:42:38;3.03;;;2.58;;
22754;SDS011;11544;42.020;23.094;2024-02-14T00:45:06;3.20;;;2.88;;
22754;SDS011;11544;42.020;23.094;2024-02-14T00:47:36;4.47;;;3.13;;
22754;SDS011;11544;42.020;23.094;2024-02-14T00:50:03;2.95;;;2.63;;
22754;SDS011;11544;42.020;23.094;2024-02-14T00:52:30;3.50;;;3.15;;
22754;SDS011;11544;42.020;23.094;2024-02-14T00:54:57;6.70;;;2.97;;
22754;SDS011;11544;42.020;23.094;2024-02-14T00:57:24;3.80;;;2.97;;
22754;SDS011;11544;42.020;23.094;2024-02-14T00:59:55;3.75;;;3.22;;
22754;SDS011;11544;42.020;23.094;2024-02-14T01:02:27;5.00;;;2.95;;
22754;SDS011;11544;42.020;23.094;2024-02-14T01:04:54;4.30;;;3.22;;
22754;SDS011;11544;42.020;23.094;2024-02-14T01:07:20;3.33;;;3.03;;
22754;SDS011;11544;42.020;23.094;2024-02-14T01:09:48;5.25;;;3.33;;
22754;SDS011;11544;42.020;23.094;2024-02-14T01:12:14;3.72;;;2.97;;
22754;SDS011;11544;42.020;23.094;2024-02-14T01:14:41;4.72;;;2.92;;
22754;SDS011;11544;42.020;23.094;2024-02-14T01:17:09;4.57;;;3.33;;
22754;SDS011;11544;42.020;23.094;2024-02-14T01:19:36;4.35;;;3.42;;
22754;SDS011;11544;42.020;23.094;2024-02-14T01:22:03;7.30;;;2.80;;
22754;SDS011;11544;42.020;23.094;2024-02-14T01:24:30;3.50;;;3.10;;
22754;SDS011;11544;42.020;23.094;2024-02-14T01:26:57;5.40;;;3.30;;
22754;SDS011;11544;42.020;23.094;2024-02-14T01:29:24;5.30;;;3.22;;
22754;SDS011;11544;42.020;23.094;2024-02-14T01:31:53;3.80;;;3.03;;
22754;SDS011;11544;42.020;23.094;2024-02-14T01:34:21;4.45;;;3.55;;
22754;SDS011;11544;42.020;23.094;2024-02-14T01:36:48;5.35;;;4.13;;
22754;SDS011;11544;42.020;23.094;2024-02-14T01:39:15;4.22;;;3.38;;
22754;SDS011;11544;42.020;23.094;2024-02-14T01:41:44;4.40;;;3.22;;
22754;SDS011;11544;42.020;23.094;2024-02-14T01:44:15;5.07;;;3.60;;
22754;SDS011;11544;42.020;23.094;2024-02-14T01:46:43;5.38;;;3.60;;
22754;SDS011;11544;42.020;23.094;2024-02-14T01:49:11;5.18;;;3.72;;
22754;SDS011;11544;42.020;23.094;2024-02-14T01:51:42;4.88;;;3.40;;
22754;SDS011;11544;42.020;23.094;2024-02-14T01:54:11;5.30;;;3.80;;
22754;SDS011;11544;42.020;23.094;2024-02-14T01:56:39;6.43;;;3.67;;
22754;SDS011;11544;42.020;23.094;2024-02-14T01:59:07;4.60;;;3.65;;
22754;SDS011;11544;42.020;23.094;2024-02-14T02:01:35;6.03;;;4.18;;
22754;SDS011;11544;42.020;23.094;2024-02-14T02:04:03;4.03;;;3.42;;
22754;SDS011;11544;42.020;23.094;2024-02-14T02:06:31;4.85;;;4.38;;
22754;SDS011;11544;42.020;23.094;2024-02-14T02:08:59;6.63;;;4.20;;
22754;SDS011;11544;42.020;23.094;2024-02-14T02:11:27;4.75;;;3.85;;
22754;SDS011;11544;42.020;23.094;2024-02-14T02:13:54;5.82;;;4.07;;
22754;SDS011;11544;42.020;23.094;2024-02-14T02:16:21;4.47;;;3.70;;
22754;SDS011;11544;42.020;23.094;2024-02-14T02:18:48;4.65;;;3.58;;
22754;SDS011;11544;42.020;23.094;2024-02-14T02:21:16;4.40;;;3.50;;
22754;SDS011;11544;42.020;23.094;2024-02-14T02:23:46;4.60;;;3.50;;
22754;SDS011;11544;42.020;23.094;2024-02-14T02:26:13;5.35;;;3.60;;
22754;SDS011;11544;42.020;23.094;2024-02-14T02:28:41;5.57;;;3.78;;
22754;SDS011;11544;42.020;23.094;2024-02-14T02:31:09;4.03;;;3.63;;
22754;SDS011;11544;42.020;23.094;2024-02-14T02:33:37;6.95;;;4.00;;
22754;SDS011;11544;42.020;23.094;2024-02-14T02:36:04;4.68;;;4.00;;
22754;SDS011;11544;42.020;23.094;2024-02-14T02:38:33;6.88;;;4.45;;
22754;SDS011;11544;42.020;23.094;2024-02-14T02:41:00;5.95;;;4.50;;
22754;SDS011;11544;42.020;23.094;2024-02-14T02:43:27;6.72;;;4.82;;
22754;SDS011;11544;42.020;23.094;2024-02-14T02:45:54;5.47;;;4.40;;
22754;SDS011;11544;42.020;23.094;2024-02-14T02:48:21;5.63;;;3.92;;
22754;SDS011;11544;42.020;23.094;2024-02-14T02:50:50;7.18;;;4.38;;
22754;SDS011;11544;42.020;23.094;2024-02-14T02:53:18;6.03;;;4.65;;
22754;SDS011;11544;42.020;23.094;2024-02-14T02:55:45;6.43;;;4.38;;
22754;SDS011;11544;42.020;23.094;2024-02-14T02:58:12;6.40;;;4.40;;
22754;SDS011;11544;42.020;23.094;2024-02-14T03:00:40;6.22;;;4.53;;
22754;SDS011;11544;42.020;23.094;2024-02-14T03:03:07;6.20;;;4.65;;
22754;SDS011;11544;42.020;23.094;2024-02-14T03:05:35;4.95;;;4.22;;
22754;SDS011;11544;42.020;23.094;2024-02-14T03:08:02;5.85;;;4.18;;
22754;SDS011;11544;42.020;23.094;2024-02-14T03:10:29;6.07;;;4.22;;
22754;SDS011;11544;42.020;23.094;2024-02-14T03:12:57;6.22;;;4.47;;
22754;SDS011;11544;42.020;23.094;2024-02-14T03:15:23;5.95;;;4.28;;
22754;SDS011;11544;42.020;23.094;2024-02-14T03:17:52;5.97;;;4.63;;
22754;SDS011;11544;42.020;23.094;2024-02-14T03:20:19;7.82;;;4.68;;
22754;SDS011;11544;42.020;23.094;2024-02-14T03:22:46;6.00;;;4.40;;
22754;SDS011;11544;42.020;23.094;2024-02-14T03:25:17;6.95;;;5.20;;
22754;SDS011;11544;42.020;23.094;2024-02-14T03:27:46;5.78;;;4.43;;
22754;SDS011;11544;42.020;23.094;2024-02-14T03:30:16;9.85;;;5.13;;
22754;SDS011;11544;42.020;23.094;2024-02-14T03:32:44;9.07;;;5.60;;
22754;SDS011;11544;42.020;23.094;2024-02-14T03:35:14;8.85;;;6.35;;
22754;SDS011;11544;42.020;23.094;2024-02-14T03:37:42;8.30;;;5.63;;
22754;SDS011;11544;42.020;23.094;2024-02-14T03:40:10;10.02;;;5.30;;
22754;SDS011;11544;42.020;23.094;2024-02-14T03:42:38;5.88;;;5.10;;
22754;SDS011;11544;42.020;23.094;2024-02-14T03:45:08;9.25;;;5.18;;
22754;SDS011;11544;42.020;23.094;2024-02-14T03:47:36;6.22;;;4.75;;
22754;SDS011;11544;42.020;23.094;2024-02-14T03:50:07;5.75;;;4.05;;
22754;SDS011;11544;42.020;23.094;2024-02-14T03:52:35;6.90;;;4.93;;
22754;SDS011;11544;42.020;23.094;2024-02-14T03:55:02;7.28;;;5.63;;
22754;SDS011;11544;42.020;23.094;2024-02-14T03:57:30;7.95;;;4.65;;
22754;SDS011;11544;42.020;23.094;2024-02-14T03:59:58;6.85;;;4.72;;
22754;SDS011;11544;42.020;23.094;2024-02-14T04:02:30;12.13;;;5.05;;
22754;SDS011;11544;42.020;23.094;2024-02-14T04:04:58;8.68;;;5.38;;
22754;SDS011;11544;42.020;23.094;2024-02-14T04:07:25;7.60;;;5.35;;
22754;SDS011;11544;42.020;23.094;2024-02-14T04:09:53;7.80;;;5.28;;
22754;SDS011;11544;42.020;23.094;2024-02-14T04:12:20;8.23;;;5.00;;
22754;SDS011;11544;42.020;23.094;2024-02-14T04:14:47;6.72;;;5.18;;
22754;SDS011;11544;42.020;23.094;2024-02-14T04:17:14;6.95;;;5.15;;
22754;SDS011;11544;42.020;23.094;2024-02-14T04:19:41;6.43;;;4.88;;
22754;SDS011;11544;42.020;23.094;2024-02-14T04:22:08;6.07;;;4.35;;
22754;SDS011;11544;42.020;23.094;2024-02-14T04:24:35;5.75;;;4.47;;
22754;SDS011;11544;42.020;23.094;2024-02-14T04:27:03;6.30;;;4.47;;
22754;SDS011;11544;42.020;23.094;2024-02-14T04:29:31;7.28;;;4.30;;
22754;SDS011;11544;42.020;23.094;2024-02-14T04:32:00;5.72;;;4.65;;
22754;SDS011;11544;42.020;23.094;2024-02-14T04:34:28;11.50;;;5.05;;
22754;SDS011;11544;42.020;23.094;2024-02-14T04:36:57;6.18;;;4.80;;
22754;SDS011;11544;42.020;23.094;2024-02-14T04:39:24;6.90;;;4.90;;
22754;SDS011;11544;42.020;23.094;2024-02-14T04:41:51;6.63;;;4.35;;
22754;SDS011;11544;42.020;23.094;2024-02-14T04:44:27;6.00;;;4.63;;
22754;SDS011;11544;42.020;23.094;2024-02-14T04:46:55;5.88;;;4.50;;
22754;SDS011;11544;42.020;23.094;2024-02-14T04:49:25;5.90;;;4.40;;
22754;SDS011;11544;42.020;23.094;2024-02-14T04:51:53;7.65;;;4.88;;
22754;SDS011;11544;42.020;23.094;2024-02-14T04:54:21;5.15;;;4.57;;
22754;SDS011;11544;42.020;23.094;2024-02-14T04:56:48;6.32;;;5.05;;
22754;SDS011;11544;42.020;23.094;2024-02-14T04:59:21;7.72;;;4.85;;
22754;SDS011;11544;42.020;23.094;2024-02-14T05:01:47;6.15;;;4.60;;
22754;SDS011;11544;42.020;23.094;2024-02-14T05:04:14;5.82;;;4.30;;
22754;SDS011;11544;42.020;23.094;2024-02-14T05:06:43;8.52;;;5.00;;
22754;SDS011;11544;42.020;23.094;2024-02-14T05:09:10;7.20;;;4.88;;
22754;SDS011;11544;42.020;23.094;2024-02-14T05:11:37;6.85;;;4.47;;
22754;SDS011;11544;42.020;23.094;2024-02-14T05:14:04;7.57;;;5.15;;
22754;SDS011;11544;42.020;23.094;2024-02-14T05:16:31;5.93;;;4.38;;
22754;SDS011;11544;42.020;23.094;2024-02-14T05:18:58;5.78;;;4.40;;
22754;SDS011;11544;42.020;23.094;2024-02-14T05:21:25;7.95;;;4.53;;
22754;SDS011;11544;42.020;23.094;2024-02-14T05:23:53;7.32;;;4.60;;
22754;SDS011;11544;42.020;23.094;2024-02-14T05:26:20;5.90;;;4.38;;
22754;SDS011;11544;42.020;23.094;2024-02-14T05:28:47;6.60;;;5.28;;
22754;SDS011;11544;42.020;23.094;2024-02-14T05:31:14;6.03;;;4.18;;
22754;SDS011;11544;42.020;23.094;2024-02-14T05:33:41;5.45;;;4.47;;
22754;SDS011;11544;42.020;23.094;2024-02-14T05:36:09;6.10;;;4.82;;
22754;SDS011;11544;42.020;23.094;2024-02-14T05:38:37;5.65;;;4.38;;
22754;SDS011;11544;42.020;23.094;2024-02-14T05:41:03;8.40;;;4.40;;
22754;SDS011;11544;42.020;23.094;2024-02-14T05:43:30;6.88;;;4.55;;
22754;SDS011;11544;42.020;23.094;2024-02-14T05:45:57;5.18;;;4.43;;
22754;SDS011;11544;42.020;23.094;2024-02-14T05:48:24;5.90;;;4.80;;
22754;SDS011;11544;42.020;23.094;2024-02-14T05:50:52;10.15;;;4.60;;
22754;SDS011;11544;42.020;23.094;2024-02-14T05:53:19;6.32;;;4.53;;
22754;SDS011;11544;42.020;23.094;2024-02-14T05:55:46;6.30;;;4.70;;
22754;SDS011;11544;42.020;23.094;2024-02-14T05:58:13;6.82;;;4.80;;
22754;SDS011;11544;42.020;23.094;2024-02-14T06:00:40;7.78;;;5.40;;
22754;SDS011;11544;42.020;23.094;2024-02-14T06:03:08;10.73;;;5.80;;
22754;SDS011;11544;42.020;23.094;2024-02-14T06:05:35;6.45;;;4.82;;
22754;SDS011;11544;42.020;23.094;2024-02-14T06:08:02;6.75;;;5.10;;
22754;SDS011;11544;42.020;23.094;2024-02-14T06:10:29;7.32;;;4.93;;
22754;SDS011;11544;42.020;23.094;2024-02-14T06:12:56;9.82;;;6.20;;
22754;SDS011;11544;42.020;23.094;2024-02-14T06:15:23;7.38;;;5.45;;
22754;SDS011;11544;42.020;23.094;2024-02-14T06:17:50;10.35;;;5.55;;
22754;SDS011;11544;42.020;23.094;2024-02-14T06:20:17;8.40;;;5.53;;
22754;SDS011;11544;42.020;23.094;2024-02-14T06:22:45;8.48;;;5.88;;
22754;SDS011;11544;42.020;23.094;2024-02-14T06:25:26;6.63;;;5.20;;
22754;SDS011;11544;42.020;23.094;2024-02-14T06:27:53;10.88;;;5.65;;
22754;SDS011;11544;42.020;23.094;2024-02-14T06:30:23;8.50;;;5.32;;
22754;SDS011;11544;42.020;23.094;2024-02-14T06:32:53;7.97;;;5.35;;
22754;SDS011;11544;42.020;23.094;2024-02-14T06:35:20;7.47;;;5.28;;
22754;SDS011;11544;42.020;23.094;2024-02-14T06:37:48;6.63;;;5.35;;
22754;SDS011;11544;42.020;23.094;2024-02-14T06:40:28;6.70;;;5.25;;
22754;SDS011;11544;42.020;23.094;2024-02-14T06:42:56;7.65;;;5.43;;
22754;SDS011;11544;42.020;23.094;2024-02-14T06:45:32;6.05;;;5.00;;
22754;SDS011;11544;42.020;23.094;2024-02-14T06:47:59;6.15;;;5.10;;
22754;SDS011;11544;42.020;23.094;2024-02-14T06:50:26;8.38;;;5.70;;
22754;SDS011;11544;42.020;23.094;2024-02-14T06:52:55;7.75;;;5.72;;
22754;SDS011;11544;42.020;23.094;2024-02-14T06:55:26;8.70;;;5.78;;
22754;SDS011;11544;42.020;23.094;2024-02-14T06:57:54;7.25;;;5.50;;
22754;SDS011;11544;42.020;23.094;2024-02-14T07:00:20;6.63;;;4.97;;
22754;SDS011;11544;42.020;23.094;2024-02-14T07:02:47;9.65;;;6.25;;
22754;SDS011;11544;42.020;23.094;2024-02-14T07:05:14;7.57;;;5.85;;
22754;SDS011;11544;42.020;23.094;2024-02-14T07:07:41;7.43;;;5.72;;
22754;SDS011;11544;42.020;23.094;2024-02-14T07:10:08;6.20;;;4.85;;
22754;SDS011;11544;42.020;23.094;2024-02-14T07:12:35;5.70;;;4.63;;
22754;SDS011;11544;42.020;23.094;2024-02-14T07:15:03;6.38;;;4.93;;
22754;SDS011;11544;42.020;23.094;2024-02-14T07:17:31;8.20;;;5.43;;
22754;SDS011;11544;42.020;23.094;2024-02-14T07:19:58;7.40;;;5.07;;
22754;SDS011;11544;42.020;23.094;2024-02-14T07:22:25;6.50;;;5.05;;
22754;SDS011;11544;42.020;23.094;2024-02-14T07:24:52;5.82;;;4.75;;
22754;SDS011;11544;42.020;23.094;2024-02-14T07:27:20;6.68;;;4.75;;
22754;SDS011;11544;42.020;23.094;2024-02-14T07:29:47;7.35;;;5.13;;
22754;SDS011;11544;42.020;23.094;2024-02-14T07:32:15;5.85;;;4.38;;
22754;SDS011;11544;42.020;23.094;2024-02-14T07:34:43;6.95;;;4.78;;
22754;SDS011;11544;42.020;23.094;2024-02-14T07:37:10;5.40;;;4.47;;
22754;SDS011;11544;42.020;23.094;2024-02-14T07:39:37;6.70;;;4.38;;
22754;SDS011;11544;42.020;23.094;2024-02-14T07:42:04;6.05;;;4.82;;
22754;SDS011;11544;42.020;23.094;2024-02-14T07:44:31;7.97;;;4.90;;
22754;SDS011;11544;42.020;23.094;2024-02-14T07:46:58;8.30;;;4.75;;
22754;SDS011;11544;42.020;23.094;2024-02-14T07:49:29;5.05;;;4.35;;
22754;SDS011;11544;42.020;23.094;2024-02-14T07:51:57;6.53;;;4.45;;
22754;SDS011;11544;42.020;23.094;2024-02-14T07:54:24;5.82;;;4.38;;
22754;SDS011;11544;42.020;23.094;2024-02-14T07:56:51;6.03;;;4.78;;
22754;SDS011;11544;42.020;23.094;2024-02-14T07:59:18;7.45;;;4.43;;
22754;SDS011;11544;42.020;23.094;2024-02-14T08:01:47;6.18;;;4.88;;
22754;SDS011;11544;42.020;23.094;2024-02-14T08:04:14;5.53;;;4.45;;
22754;SDS011;11544;42.020;23.094;2024-02-14T08:06:44;6.30;;;3.83;;
22754;SDS011;11544;42.020;23.094;2024-02-14T08:09:11;8.15;;;5.18;;
22754;SDS011;11544;42.020;23.094;2024-02-14T08:11:38;7.78;;;4.68;;
22754;SDS011;11544;42.020;23.094;2024-02-14T08:14:05;5.55;;;4.45;;
22754;SDS011;11544;42.020;23.094;2024-02-14T08:16:32;8.70;;;5.95;;
22754;SDS011;11544;42.020;23.094;2024-02-14T08:18:59;7.63;;;5.03;;
22754;SDS011;11544;42.020;23.094;2024-02-14T08:21:27;5.60;;;4.25;;
22754;SDS011;11544;42.020;23.094;2024-02-14T08:23:57;5.90;;;4.38;;
22754;SDS011;11544;42.020;23.094;2024-02-14T08:26:27;6.22;;;3.83;;
22754;SDS011;11544;42.020;23.094;2024-02-14T08:28:54;6.25;;;4.20;;
22754;SDS011;11544;42.020;23.094;2024-02-14T08:31:21;6.05;;;4.40;;
22754;SDS011;11544;42.020;23.094;2024-02-14T08:33:49;7.30;;;4.53;;
22754;SDS011;11544;42.020;23.094;2024-02-14T08:36:16;4.72;;;4.15;;
22754;SDS011;11544;42.020;23.094;2024-02-14T08:38:45;4.78;;;3.50;;
22754;SDS011;11544;42.020;23.094;2024-02-14T08:41:12;8.32;;;4.20;;
22754;SDS011;11544;42.020;23.094;2024-02-14T08:43:39;10.73;;;3.90;;
22754;SDS011;11544;42.020;23.094;2024-02-14T08:46:11;5.80;;;3.95;;
22754;SDS011;11544;42.020;23.094;2024-02-14T08:48:38;5.50;;;3.55;;
22754;SDS011;11544;42.020;23.094;2024-02-14T08:51:14;5.85;;;4.38;;
22754;SDS011;11544;42.020;23.094;2024-02-14T08:53:42;6.60;;;4.00;;
22754;SDS011;11544;42.020;23.094;2024-02-14T08:56:10;7.20;;;3.70;;
22754;SDS011;11544;42.020;23.094;2024-02-14T08:58:37;15.50;;;5.85;;
22754;SDS011;11544;42.020;23.094;2024-02-14T09:01:05;13.25;;;7.82;;
22754;SDS011;11544;42.020;23.094;2024-02-14T09:03:40;8.88;;;5.28;;
22754;SDS011;11544;42.020;23.094;2024-02-14T09:06:10;9.23;;;5.68;;
22754;SDS011;11544;42.020;23.094;2024-02-14T09:08:37;6.95;;;5.25;;
22754;SDS011;11544;42.020;23.094;2024-02-14T09:11:04;7.20;;;4.70;;
22754;SDS011;11544;42.020;23.094;2024-02-14T09:13:31;8.80;;;5.13;;
22754;SDS011;11544;42.020;23.094;2024-02-14T09:15:58;5.22;;;3.80;;
22754;SDS011;11544;42.020;23.094;2024-02-14T09:18:26;6.10;;;4.20;;
22754;SDS011;11544;42.020;23.094;2024-02-14T09:20:53;6.93;;;4.22;;
22754;SDS011;11544;42.020;23.094;2024-02-14T09:23:23;5.85;;;3.58;;
22754;SDS011;11544;42.020;23.094;2024-02-14T09:25:50;6.53;;;4.10;;
22754;SDS011;11544;42.020;23.094;2024-02-14T09:28:17;5.22;;;3.72;;
22754;SDS011;11544;42.020;23.094;2024-02-14T09:30:45;5.60;;;3.58;;
22754;SDS011;11544;42.020;23.094;2024-02-14T09:33:12;7.00;;;4.35;;
22754;SDS011;11544;42.020;23.094;2024-02-14T09:35:39;4.95;;;3.30;;
22754;SDS011;11544;42.020;23.094;2024-02-14T09:38:11;4.72;;;3.70;;
22754;SDS011;11544;42.020;23.094;2024-02-14T09:40:42;8.20;;;4.43;;
22754;SDS011;11544;42.020;23.094;2024-02-14T09:43:17;5.60;;;4.50;;
22754;SDS011;11544;42.020;23.094;2024-02-14T09:45:56;5.43;;;3.90;;
22754;SDS011;11544;42.020;23.094;2024-02-14T09:48:23;7.07;;;3.95;;
22754;SDS011;11544;42.020;23.094;2024-02-14T09:50:53;8.63;;;5.40;;
22754;SDS011;11544;42.020;23.094;2024-02-14T09:53:21;6.63;;;4.60;;
22754;SDS011;11544;42.020;23.094;2024-02-14T09:55:52;5.28;;;3.80;;
22754;SDS011;11544;42.020;23.094;2024-02-14T09:58:21;6.05;;;4.20;;
22754;SDS011;11544;42.020;23.094;2024-02-14T10:00:49;5.20;;;3.60;;
22754;SDS011;11544;42.020;23.094;2024-02-14T10:03:17;5.20;;;3.63;;
22754;SDS011;11544;42.020;23.094;2024-02-14T10:05:44;4.32;;;3.53;;
22754;SDS011;11544;42.020;23.094;2024-02-14T10:08:11;7.72;;;3.83;;
22754;SDS011;11544;42.020;23.094;2024-02-14T10:10:39;4.97;;;3.15;;
22754;SDS011;11544;42.020;23.094;2024-02-14T10:13:06;4.93;;;2.97;;
22754;SDS011;11544;42.020;23.094;2024-02-14T10:15:33;4.45;;;3.35;;
22754;SDS011;11544;42.020;23.094;2024-02-14T10:18:04;4.25;;;3.20;;
22754;SDS011;11544;42.020;23.094;2024-02-14T10:20:31;3.88;;;3.20;;
22754;SDS011;11544;42.020;23.094;2024-02-14T10:23:01;4.88;;;3.60;;
22754;SDS011;11544;42.020;23.094;2024-02-14T10:25:30;4.65;;;3.33;;
22754;SDS011;11544;42.020;23.094;2024-02-14T10:28:06;5.47;;;3.83;;
22754;SDS011;11544;42.020;23.094;2024-02-14T10:30:36;6.80;;;4.10;;
22754;SDS011;11544;42.020;23.094;2024-02-14T10:33:08;5.38;;;3.47;;
22754;SDS011;11544;42.020;23.094;2024-02-14T10:35:49;6.25;;;3.65;;
22754;SDS011;11544;42.020;23.094;2024-02-14T10:38:19;7.18;;;3.75;;
22754;SDS011;11544;42.020;23.094;2024-02-14T10:40:48;6.60;;;3.85;;
22754;SDS011;11544;42.020;23.094;2024-02-14T10:43:17;8.45;;;3.63;;
22754;SDS011;11544;42.020;23.094;2024-02-14T10:45:44;6.00;;;3.30;;
22754;SDS011;11544;42.020;23.094;2024-02-14T10:48:12;4.97;;;3.88;;
22754;SDS011;11544;42.020;23.094;2024-02-14T10:50:43;4.95;;;3.92;;
22754;SDS011;11544;42.020;23.094;2024-02-14T10:53:13;6.18;;;3.45;;
22754;SDS011;11544;42.020;23.094;2024-02-14T10:55:45;7.00;;;4.13;;
22754;SDS011;11544;42.020;23.094;2024-02-14T10:58:18;7.93;;;4.10;;
22754;SDS011;11544;42.020;23.094;2024-02-14T11:00:45;5.10;;;3.60;;
22754;SDS011;11544;42.020;23.094;2024-02-14T11:03:13;5.68;;;3.80;;
22754;SDS011;11544;42.020;23.094;2024-02-14T11:05:43;6.35;;;3.90;;
22754;SDS011;11544;42.020;23.094;2024-02-14T11:08:15;4.97;;;3.85;;
22754;SDS011;11544;42.020;23.094;2024-02-14T11:10:52;5.70;;;3.85;;
22754;SDS011;11544;42.020;23.094;2024-02-14T11:13:21;4.10;;;3.17;;
22754;SDS011;11544;42.020;23.094;2024-02-14T11:15:51;6.25;;;3.28;;
22754;SDS011;11544;42.020;23.094;2024-02-14T11:18:27;4.88;;;3.50;;
22754;SDS011;11544;42.020;23.094;2024-02-14T11:21:04;6.72;;;3.88;;
22754;SDS011;11544;42.020;23.094;2024-02-14T11:23:52;4.95;;;3.80;;
22754;SDS011;11544;42.020;23.094;2024-02-14T11:26:19;5.28;;;4.20;;
22754;SDS011;11544;42.020;23.094;2024-02-14T11:28:46;5.30;;;4.05;;
22754;SDS011;11544;42.020;23.094;2024-02-14T11:31:17;5.97;;;3.90;;
22754;SDS011;11544;42.020;23.094;2024-02-14T11:33:45;7.03;;;4.68;;
22754;SDS011;11544;42.020;23.094;2024-02-14T11:36:13;7.32;;;4.90;;
22754;SDS011;11544;42.020;23.094;2024-02-14T11:38:43;5.50;;;3.75;;
22754;SDS011;11544;42.020;23.094;2024-02-14T11:41:13;8.25;;;4.65;;
22754;SDS011;11544;42.020;23.094;2024-02-14T11:43:50;6.90;;;4.78;;
22754;SDS011;11544;42.020;23.094;2024-02-14T11:46:17;5.68;;;4.00;;
22754;SDS011;11544;42.020;23.094;2024-02-14T11:48:44;10.30;;;5.70;;
22754;SDS011;11544;42.020;23.094;2024-02-14T11:51:14;5.20;;;3.83;;
22754;SDS011;11544;42.020;23.094;2024-02-14T11:53:41;9.05;;;4.43;;
22754;SDS011;11544;42.020;23.094;2024-02-14T11:56:08;5.00;;;3.78;;
22754;SDS011;11544;42.020;23.094;2024-02-14T11:58:35;6.00;;;3.83;;
22754;SDS011;11544;42.020;23.094;2024-02-14T12:01:03;5.30;;;3.75;;
22754;SDS011;11544;42.020;23.094;2024-02-14T12:03:32;4.55;;;3.58;;
22754;SDS011;11544;42.020;23.094;2024-02-14T12:05:59;6.97;;;3.58;;
22754;SDS011;11544;42.020;23.094;2024-02-14T12:08:26;6.20;;;4.22;;
22754;SDS011;11544;42.020;23.094;2024-02-14T12:10:53;4.57;;;3.53;;
22754;SDS011;11544;42.020;23.094;2024-02-14T12:13:21;10.10;;;4.38;;
22754;SDS011;11544;42.020;23.094;2024-02-14T12:15:49;7.32;;;4.85;;
22754;SDS011;11544;42.020;23.094;2024-02-14T12:18:18;6.85;;;4.55;;
22754;SDS011;11544;42.020;23.094;2024-02-14T12:20:47;7.85;;;4.68;;
22754;SDS011;11544;42.020;23.094;2024-02-14T12:23:22;7.22;;;4.45;;
22754;SDS011;11544;42.020;23.094;2024-02-14T12:25:50;5.43;;;4.35;;
22754;SDS011;11544;42.020;23.094;2024-02-14T12:28:17;6.47;;;4.65;;
22754;SDS011;11544;42.020;23.094;2024-02-14T12:30:49;4.95;;;4.20;;
22754;SDS011;11544;42.020;23.094;2024-02-14T12:33:23;5.80;;;4.32;;
22754;SDS011;11544;42.020;23.094;2024-02-14T12:35:53;6.60;;;5.05;;
22754;SDS011;11544;42.020;23.094;2024-02-14T12:38:21;5.25;;;4.45;;
22754;SDS011;11544;42.020;23.094;2024-02-14T12:40:49;6.60;;;4.97;;
22754;SDS011;11544;42.020;23.094;2024-02-14T12:43:19;6.95;;;5.35;;
22754;SDS011;11544;42.020;23.094;2024-02-14T12:45:47;9.00;;;4.28;;
22754;SDS011;11544;42.020;23.094;2024-02-14T12:48:21;8.20;;;5.28;;
22754;SDS011;11544;42.020;23.094;2024-02-14T12:50:50;7.60;;;5.05;;
22754;SDS011;11544;42.020;23.094;2024-02-14T12:53:19;5.82;;;4.45;;
22754;SDS011;11544;42.020;23.094;2024-02-14T12:55:46;6.60;;;4.90;;
22754;SDS011;11544;42.020;23.094;2024-02-14T12:58:13;8.25;;;4.63;;
22754;SDS011;11544;42.020;23.094;2024-02-14T13:00:41;5.47;;;4.28;;
22754;SDS011;11544;42.020;23.094;2024-02-14T13:03:10;5.93;;;4.22;;
22754;SDS011;11544;42.020;23.094;2024-02-14T13:05:41;5.68;;;3.72;;
22754;SDS011;11544;42.020;23.094;2024-02-14T13:08:08;6.10;;;3.78;;
22754;SDS011;11544;42.020;23.094;2024-02-14T13:10:37;9.77;;;4.32;;
22754;SDS011;11544;42.020;23.094;2024-02-14T13:13:04;7.82;;;3.70;;
22754;SDS011;11544;42.020;23.094;2024-02-14T13:15:31;5.00;;;3.55;;
22754;SDS011;11544;42.020;23.094;2024-02-14T13:17:58;6.53;;;5.00;;
22754;SDS011;11544;42.020;23.094;2024-02-14T13:20:27;10.15;;;5.60;;
22754;SDS011;11544;42.020;23.094;2024-02-14T13:22:55;5.97;;;3.80;;
22754;SDS011;11544;42.020;23.094;2024-02-14T13:25:21;5.63;;;3.80;;
22754;SDS011;11544;42.020;23.094;2024-02-14T13:27:48;8.65;;;4.20;;
22754;SDS011;11544;42.020;23.094;2024-02-14T13:30:15;9.45;;;6.18;;
22754;SDS011;11544;42.020;23.094;2024-02-14T13:32:42;6.60;;;4.50;;
22754;SDS011;11544;42.020;23.094;2024-02-14T13:35:09;5.47;;;4.05;;
22754;SDS011;11544;42.020;23.094;2024-02-14T13:37:37;8.05;;;5.45;;
22754;SDS011;11544;42.020;23.094;2024-02-14T13:40:05;7.88;;;4.70;;
22754;SDS011;11544;42.020;23.094;2024-02-14T13:42:36;5.82;;;4.22;;
22754;SDS011;11544;42.020;23.094;2024-02-14T13:45:07;5.40;;;4.32;;
22754;SDS011;11544;42.020;23.094;2024-02-14T13:47:38;4.80;;;3.92;;
22754;SDS011;11544;42.020;23.094;2024-02-14T13:50:07;4.80;;;3.85;;
22754;SDS011;11544;42.020;23.094;2024-02-14T13:52:35;7.53;;;3.92;;
22754;SDS011;11544;42.020;23.094;2024-02-14T13:55:03;6.22;;;3.60;;
22754;SDS011;11544;42.020;23.094;2024-02-14T13:57:33;6.22;;;3.80;;
22754;SDS011;11544;42.020;23.094;2024-02-14T14:00:07;4.38;;;3.40;;
22754;SDS011;11544;42.020;23.094;2024-02-14T14:02:39;6.07;;;3.83;;
22754;SDS011;11544;42.020;23.094;2024-02-14T14:05:10;4.35;;;3.60;;
22754;SDS011;11544;42.020;23.094;2024-02-14T14:07:41;5.78;;;4.00;;
22754;SDS011;11544;42.020;23.094;2024-02-14T14:10:22;7.55;;;3.80;;
22754;SDS011;11544;42.020;23.094;2024-02-14T14:12:52;5.10;;;3.80;;
22754;SDS011;11544;42.020;23.094;2024-02-14T14:15:19;6.38;;;3.58;;
22754;SDS011;11544;42.020;23.094;2024-02-14T14:17:46;7.95;;;4.57;;
22754;SDS011;11544;42.020;23.094;2024-02-14T14:20:13;5.07;;;3.55;;
22754;SDS011;11544;42.020;23.094;2024-02-14T14:22:41;4.82;;;3.95;;
22754;SDS011;11544;42.020;23.094;2024-02-14T14:25:07;7.63;;;4.28;;
22754;SDS011;11544;42.020;23.094;2024-02-14T14:27:35;7.50;;;3.85;;
22754;SDS011;11544;42.020;23.094;2024-02-14T14:30:02;5.68;;;3.97;;
22754;SDS011;11544;42.020;23.094;2024-02-14T14:32:30;5.15;;;3.35;;
22754;SDS011;11544;42.020;23.094;2024-02-14T14:34:57;5.88;;;3.85;;
22754;SDS011;11544;42.020;23.094;2024-02-14T14:37:24;8.27;;;4.85;;
22754;SDS011;11544;42.020;23.094;2024-02-14T14:39:51;5.43;;;3.40;;
22754;SDS011;11544;42.020;23.094;2024-02-14T14:42:18;4.97;;;3.72;;